EDT,Max TemperatureF,Mean TemperatureF,Min TemperatureF,Max Dew PointF,MeanDew PointF,Min DewpointF,Max Humidity, Mean Humidity, Min Humidity, Max Sea Level PressureIn, Mean Sea Level PressureIn, Min Sea Level PressureIn, Max VisibilityMiles, Mean VisibilityMiles, Min VisibilityMiles, Max Wind SpeedMPH, Mean Wind SpeedMPH, Max Gust SpeedMPH,PrecipitationIn, CloudCover, Events, WindDirDegrees
2013-9-1,95,84,73,84,78,73,100,90,63,29.89,29.85,29.80,10,8,0,6,2,,0.00,3,Fog-Rain,161
2013-9-2,95,86,77,82,79,77,100,86,59,29.86,29.82,29.78,10,9,3,10,2,,0.00,2,,179
2013-9-3,89,81,73,79,74,66,100,83,52,30.00,29.87,29.78,10,8,1,7,2,,0.00,3,,340
2013-9-4,87,74,62,73,68,63,100,80,52,30.12,30.08,30.00,10,10,5,9,2,,0.00,1,,295
2013-9-5,91,76,62,73,67,63,100,75,46,30.16,30.09,30.03,10,8,0,7,1,,0.00,0,Fog,246
2013-9-6,80,70,60,68,61,57,100,74,45,30.28,30.21,30.16,10,10,7,9,4,,0.00,0,,338
2013-9-7,86,72,59,72,66,59,100,85,58,30.17,30.08,29.97,10,9,0,10,2,16,0.00,0,Fog,177
2013-9-8,95,80,64,79,72,64,100,83,49,30.05,29.96,29.91,10,8,0,14,1,,0.36,2,Fog-Rain-Thunderstorm,180
2013-9-9,84,76,69,77,70,63,100,83,65,30.23,30.17,30.06,10,10,3,8,3,,0.00,5,,16
2013-9-10,96,84,71,82,78,72,100,87,60,30.21,30.18,30.14,10,9,3,8,2,,0.00,2,,167
2013-9-11,98,86,73,82,80,73,100,86,56,30.18,30.13,30.05,10,7,0,9,1,,0.00,1,Fog,122
2013-9-12,96,84,73,81,77,72,100,91,59,30.04,29.91,29.80,10,7,1,17,2,40,0.68,2,Rain-Thunderstorm,161
2013-9-13,82,72,62,75,64,54,100,73,39,29.98,29.83,29.75,10,9,4,14,5,16,0.00,2,,294
2013-9-14,71,62,53,59,52,46,100,72,46,30.19,30.09,29.98,10,10,7,12,3,17,0.00,0,,321
2013-9-15,78,64,50,64,57,50,100,81,47,30.26,30.19,30.12,10,9,2,13,2,18,0.00,0,,166
2013-9-16,77,66,55,68,62,55,100,90,61,30.25,30.15,30.09,10,10,5,13,3,20,0.01,4,Rain,308
2013-9-17,71,60,50,59,51,46,100,75,41,30.44,30.36,30.26,10,10,7,13,4,18,0.00,1,,356
2013-9-18,73,58,44,59,51,45,100,80,44,30.36,30.30,30.22,10,10,2,7,1,,0.00,0,,99
2013-9-19,78,64,51,64,58,52,100,85,54,30.23,30.17,30.11,10,10,7,9,1,,0.00,3,,133
2013-9-20,80,68,55,70,64,55,100,86,57,30.12,30.06,29.99,10,9,0,9,1,,0.00,5,Fog,172
2013-9-21,71,68,64,72,68,64,100,99,94,29.99,29.85,29.71,10,8,2,13,3,20,0.36,7,Rain,139
2013-9-22,77,66,55,64,59,52,100,82,50,29.98,29.86,29.77,10,7,0,10,2,17,0.01,4,Fog,336
2013-9-23,69,60,50,55,51,46,100,74,49,30.12,30.07,29.98,10,10,7,10,5,16,0.00,1,,317
2013-9-24,75,62,48,61,54,48,100,82,50,30.13,30.06,29.98,10,10,5,7,1,,0.00,2,,360
2013-9-25,77,64,50,63,56,50,100,84,44,30.01,29.96,29.92,10,8,0,7,1,,0.00,0,Fog,9
2013-9-26,78,66,55,61,58,52,100,78,41,30.10,30.01,29.94,10,10,2,8,2,,0.00,1,,357
2013-9-27,73,62,50,63,58,50,100,88,65,30.26,30.18,30.10,10,9,1,6,1,,0.00,3,,42
2013-9-28,69,61,53,63,59,54,100,87,60,30.33,30.28,30.23,10,8,0,7,1,,0.00,7,Fog,3
2013-9-29,77,64,51,61,57,52,100,82,44,30.23,30.16,30.09,10,9,0,8,1,,0.00,1,Fog,27
2013-9-30,78,64,50,64,58,50,100,85,51,30.12,30.07,30.01,10,9,1,6,1,,0.00,1,,162